Αρχική σελίδα
METAR-TAF:

METAR-TAF

Αεροδρόμια :

Yap, Μικρονησία

γεωγραφικό πλάτος: 09-29N, γεωγραφικό μήκος: 138-05E, υψόμετρο: 28 μ

Παρών καιρός

Η αναφορά έγινε 9 λεπτά πριν, στις 17:51 UTC
Άνεμος 4 kt από μεταβλητές κατευθύνσεις
Θερμοκρασία 26°C
Υγρασία 94%
Πίεση 1012 hPa
Ορατότητα: 19.3 χλμ
Λίγα νέφη σε ύψος 1600 πόδια
Διάσπαρτα νέφη σε ύψος 13000 πόδια
Αρκετά νέφη σε ύψος 30000 πόδια

METAR: PTYA 251751Z VRB04KT 12SM FEW016 SCT130 BKN300 26/25 A2988 RMK SLP120 8/171 T02630246 10283 20263 57010

Χρόνος: 04:00 (18:00 UTC)

Πρόγνωση Καιρού

Η αναφορά έγινε 35 λεπτά πριν, στις 17:25 UTC
Η πρόγνωση ισχύει από τις 25 στις 18 UTC έως τις 26 στις 18 UTC
Άνεμος 10 kt από Α
Ορατότητα: 10 χλμ
Λίγα νέφη σε ύψος 1800 πόδια

TAF: PTYA 251725Z 2518/2618 09010KT P6SM FEW018

Μετεωρολογικές αναφορές και προγνώσεις για περισσότερα από 4000 αεροδρόμια (δελτία METAR και TAF).

Οι διαθέσιμοι σταθμοί απεικονίζονται στο χάρτη με κίτρινες και κόκκινες κουκκίδες.

Μετακινήστε το ποντίκι πάνω από τις κουκκίδες για να δείτε το όνομα του σταθμού.

Στη συνέχεια, κάντε κλικ για να δείτε τις μετεωρολογικές αναφορές και τις προγνώσεις καιρού.

Για να αλλάξετε το χάρτη: κάντε κλικ στα πράσινα κουμπιά με τον μαύρο σταυρό για να ζουμάρετε, στο πράσινο κουμπί με την παύλα για να αφαιρέσετε το ζουμ ή στα πράσινα βέλη για να αντιπαραβάλλετε χάρτες.


METAR-TAF: